createdAt,value
2023-09-08T00:01:23.015Z,7.73
2023-09-08T00:04:11.334Z,7.53
2023-09-08T00:06:57.936Z,7.93
2023-09-08T00:09:45.187Z,8.47
2023-09-08T00:12:31.776Z,7.93
2023-09-08T00:15:18.922Z,7.57
2023-09-08T00:18:06.248Z,7.90
2023-09-08T00:20:54.498Z,7.63
2023-09-08T00:23:41.785Z,8.07
2023-09-08T00:26:28.386Z,8.00
2023-09-08T00:29:15.313Z,7.50
2023-09-08T00:32:02.161Z,7.63
2023-09-08T00:34:49.085Z,7.90
2023-09-08T00:37:37.409Z,8.17
2023-09-08T00:40:24.275Z,8.40
2023-09-08T00:43:11.288Z,9.60
2023-09-08T00:46:00.309Z,7.60
2023-09-08T00:48:48.388Z,7.47
2023-09-08T00:51:36.290Z,8.13
2023-09-08T00:54:24.732Z,7.70
2023-09-08T00:57:11.934Z,7.17
2023-09-08T00:59:58.654Z,8.80
2023-09-08T01:02:46.455Z,8.50
2023-09-08T01:05:35.221Z,7.87
2023-09-08T01:08:22.678Z,8.57
2023-09-08T01:11:10.764Z,7.70
2023-09-08T01:13:57.336Z,8.17
2023-09-08T01:16:44.339Z,8.50
2023-09-08T01:19:31.459Z,7.97
2023-09-08T01:22:38.619Z,8.10
2023-09-08T01:25:29.040Z,8.80
2023-09-08T01:28:17.060Z,8.80
2023-09-08T01:31:04.121Z,8.17
2023-09-08T01:33:52.420Z,8.63
2023-09-08T01:36:38.930Z,8.53
2023-09-08T01:39:31.128Z,8.90
2023-09-08T01:42:19.823Z,8.00
2023-09-08T01:45:08.341Z,8.43
2023-09-08T01:47:55.465Z,8.27
2023-09-08T01:50:42.315Z,9.07
2023-09-08T01:53:30.548Z,8.57
2023-09-08T01:56:17.511Z,8.53
2023-09-08T01:59:06.134Z,8.87
2023-09-08T02:01:53.792Z,8.80
2023-09-08T02:04:40.494Z,8.43
2023-09-08T02:07:27.400Z,8.37
2023-09-08T02:10:14.094Z,8.97
2023-09-08T02:13:00.903Z,9.03
2023-09-08T02:15:49.434Z,10.20
2023-09-08T02:18:36.548Z,8.53
2023-09-08T02:21:23.825Z,9.13
2023-09-08T02:24:10.604Z,9.30
2023-09-08T02:26:57.453Z,9.10
2023-09-08T02:29:44.897Z,9.70
2023-09-08T02:32:33.262Z,9.03
2023-09-08T02:35:20.311Z,9.30
2023-09-08T02:38:07.823Z,9.27
2023-09-08T02:40:54.869Z,9.40
2023-09-08T02:44:04.382Z,8.63
2023-09-08T02:46:51.138Z,9.37
2023-09-08T02:49:39.465Z,9.00
2023-09-08T02:52:25.982Z,9.47
2023-09-08T02:55:12.861Z,9.27
2023-09-08T02:57:59.936Z,9.43
2023-09-08T03:00:47.887Z,9.50
2023-09-08T03:03:36.218Z,9.40
2023-09-08T03:06:27.793Z,8.73
2023-09-08T03:09:15.311Z,9.60
2023-09-08T03:12:02.372Z,10.10
2023-09-08T03:14:49.101Z,10.03
2023-09-08T03:17:35.938Z,10.70
2023-09-08T03:20:23.300Z,10.17
2023-09-08T03:23:11.748Z,9.90
2023-09-08T03:25:58.462Z,9.60
2023-09-08T03:28:46.386Z,9.13
2023-09-08T03:31:33.633Z,10.90
2023-09-08T03:34:22.035Z,10.10
2023-09-08T03:37:09.686Z,9.47
2023-09-08T03:39:58.193Z,9.50
2023-09-08T03:42:45.235Z,10.30
2023-09-08T03:45:31.988Z,9.00
2023-09-08T03:48:19.260Z,9.57
2023-09-08T03:51:06.153Z,8.83
2023-09-08T03:53:53.515Z,10.83
2023-09-08T03:56:41.533Z,10.27
2023-09-08T03:59:28.454Z,12.03
2023-09-08T04:02:15.402Z,10.03
2023-09-08T04:05:02.273Z,9.63
2023-09-08T04:07:49.196Z,10.57
2023-09-08T04:10:37.817Z,10.37
2023-09-08T04:13:26.618Z,10.57
2023-09-08T04:16:13.332Z,11.53
2023-09-08T04:19:00.255Z,11.07
2023-09-08T04:21:47.126Z,11.40
2023-09-08T04:24:37.542Z,9.93
2023-09-08T04:27:24.605Z,10.30
2023-09-08T04:30:14.354Z,9.73
2023-09-08T04:33:01.290Z,9.23
2023-09-08T04:35:48.073Z,9.50
2023-09-08T04:38:34.885Z,9.70
2023-09-08T04:41:21.696Z,11.23
2023-09-08T04:44:08.567Z,11.03
2023-09-08T04:46:57.068Z,10.73
2023-09-08T04:49:45.155Z,10.50
2023-09-08T04:52:32.189Z,10.77
2023-09-08T04:55:20.937Z,10.70
2023-09-08T04:58:08.553Z,11.13
2023-09-08T05:00:56.508Z,11.37
2023-09-08T05:03:45.371Z,10.87
2023-09-08T05:06:33.153Z,11.30
2023-09-08T05:09:20.014Z,9.97
2023-09-08T05:12:07.363Z,10.70
2023-09-08T05:15:01.130Z,11.60
2023-09-08T05:17:49.152Z,11.17
2023-09-08T05:20:39.142Z,11.00
2023-09-08T05:23:26.030Z,11.63
2023-09-08T05:26:12.924Z,11.83
2023-09-08T05:28:59.734Z,11.33
2023-09-08T05:31:47.533Z,11.13
2023-09-08T05:34:34.597Z,11.50
2023-09-08T05:37:23.076Z,10.77
2023-09-08T05:40:11.010Z,10.37
2023-09-08T05:42:57.968Z,11.77
2023-09-08T05:45:44.963Z,11.67
2023-09-08T05:48:32.039Z,11.93
2023-09-08T05:51:27.252Z,11.03
2023-09-08T05:54:19.139Z,11.50
2023-09-08T05:57:07.625Z,11.63
2023-09-08T05:59:54.474Z,11.33
2023-09-08T06:02:41.554Z,10.80
2023-09-08T06:05:31.397Z,11.00
2023-09-08T06:08:18.317Z,11.03
2023-09-08T06:11:27.619Z,11.07
2023-09-08T06:14:34.343Z,10.50
2023-09-08T06:17:25.553Z,11.67
2023-09-08T06:20:14.872Z,10.90
2023-09-08T06:23:01.923Z,10.53
2023-09-08T06:25:49.369Z,11.07
2023-09-08T06:28:38.238Z,12.00
2023-09-08T06:31:25.689Z,10.47
2023-09-08T06:34:13.067Z,9.70
2023-09-08T06:37:00.031Z,10.53
2023-09-08T06:39:47.081Z,9.87
2023-09-08T06:42:34.108Z,10.10
2023-09-08T06:45:31.673Z,9.27
2023-09-08T06:48:18.757Z,9.83
2023-09-08T06:51:05.736Z,9.50
2023-09-08T06:53:58.235Z,9.33
2023-09-08T06:56:49.199Z,9.17
2023-09-08T06:59:36.121Z,8.43
2023-09-08T07:02:24.261Z,9.13
2023-09-08T07:05:12.057Z,8.53
2023-09-08T07:07:58.855Z,8.00
2023-09-08T07:10:45.829Z,8.10
2023-09-08T07:13:32.680Z,7.70
2023-09-08T07:16:20.163Z,7.10
2023-09-08T07:19:08.696Z,6.90
2023-09-08T07:21:55.764Z,7.00
2023-09-08T07:24:43.233Z,6.40
2023-09-08T07:27:29.972Z,6.30
2023-09-08T07:30:17.056Z,6.37
2023-09-08T07:33:05.945Z,5.93
2023-09-08T07:35:54.542Z,6.43
2023-09-08T07:38:41.690Z,6.27
2023-09-08T07:41:28.851Z,6.70
2023-09-08T07:44:16.280Z,6.17
2023-09-08T07:47:02.816Z,6.23
2023-09-08T07:49:50.179Z,6.40
2023-09-08T07:52:38.381Z,5.73
2023-09-08T07:55:28.503Z,5.50
2023-09-08T07:58:15.282Z,5.73
2023-09-08T08:01:02.232Z,5.70
2023-09-08T08:03:49.183Z,6.33
2023-09-08T08:06:36.139Z,6.03
2023-09-08T08:09:24.337Z,5.53
2023-09-08T08:12:11.131Z,5.57
2023-09-08T08:14:57.908Z,5.93
2023-09-08T08:17:45.073Z,5.63
2023-09-08T08:20:35.832Z,5.20
2023-09-08T08:23:22.750Z,5.50
2023-09-08T08:26:10.653Z,5.20
2023-09-08T08:28:57.554Z,5.23
2023-09-08T08:31:44.481Z,5.03
2023-09-08T08:34:31.266Z,5.40
2023-09-08T08:37:18.228Z,5.00
2023-09-08T08:40:06.531Z,5.30
2023-09-08T08:42:58.442Z,4.90
2023-09-08T08:45:48.834Z,4.83
2023-09-08T08:48:36.693Z,4.80
2023-09-08T08:51:25.822Z,4.47
2023-09-08T08:54:14.951Z,4.73
2023-09-08T08:57:02.399Z,4.73
2023-09-08T08:59:52.880Z,4.70
2023-09-08T09:02:42.415Z,4.90
2023-09-08T09:05:29.622Z,4.87
2023-09-08T09:08:18.314Z,4.63
2023-09-08T09:11:04.922Z,4.80
2023-09-08T09:13:51.699Z,4.40
2023-09-08T09:16:43.551Z,4.10
2023-09-08T09:19:32.537Z,4.37
2023-09-08T09:22:23.159Z,4.53
2023-09-08T09:25:11.890Z,4.70
2023-09-08T09:28:00.124Z,4.93
2023-09-08T09:30:50.485Z,4.70
2023-09-08T09:33:38.749Z,4.47
2023-09-08T09:36:25.726Z,4.37
2023-09-08T09:39:13.145Z,4.90
2023-09-08T09:42:00.478Z,4.87
2023-09-08T09:44:48.990Z,4.50
2023-09-08T09:47:35.936Z,4.60
2023-09-08T09:50:31.504Z,4.67
2023-09-08T09:53:19.346Z,4.80
2023-09-08T09:56:06.170Z,4.50
2023-09-08T09:58:56.115Z,4.63
2023-09-08T10:01:44.923Z,4.10
2023-09-08T10:04:33.329Z,4.50
2023-09-08T10:07:21.497Z,4.40
2023-09-08T10:10:10.578Z,4.30
2023-09-08T10:13:02.473Z,4.80
2023-09-08T10:15:51.138Z,5.07
2023-09-08T10:18:39.035Z,4.33
2023-09-08T10:21:29.053Z,4.60
2023-09-08T10:24:25.063Z,4.77
2023-09-08T10:27:13.741Z,4.57
2023-09-08T10:30:02.700Z,4.70
2023-09-08T10:32:51.253Z,5.30
2023-09-08T10:35:38.241Z,4.97
2023-09-08T10:38:26.722Z,4.40
2023-09-08T10:41:33.388Z,4.80
2023-09-08T10:44:20.555Z,4.90
2023-09-08T10:47:07.353Z,4.97
2023-09-08T10:49:59.630Z,4.33
2023-09-08T10:52:48.360Z,5.87
2023-09-08T10:55:38.759Z,8.70
2023-09-08T10:58:35.125Z,4.60
2023-09-08T11:01:28.025Z,4.43
2023-09-08T11:04:20.332Z,4.80
2023-09-08T11:07:07.340Z,4.83
2023-09-08T11:09:54.903Z,4.97
2023-09-08T11:12:41.842Z,5.13
2023-09-08T11:15:30.124Z,5.00
2023-09-08T11:18:17.198Z,4.70
2023-09-08T11:21:09.637Z,5.13
2023-09-08T11:23:57.099Z,5.53
2023-09-08T11:26:46.923Z,4.80
2023-09-08T11:29:34.195Z,5.07
2023-09-08T11:32:22.987Z,4.90
2023-09-08T11:35:11.797Z,4.70
2023-09-08T11:38:06.094Z,4.90
2023-09-08T11:40:52.901Z,4.67
2023-09-08T11:43:39.658Z,4.03
2023-09-08T11:46:28.397Z,4.20
2023-09-08T11:49:20.689Z,4.27
2023-09-08T11:52:08.646Z,4.80
2023-09-08T11:55:06.646Z,4.53
2023-09-08T11:57:58.533Z,4.70
2023-09-08T12:00:49.059Z,4.30
2023-09-08T12:03:36.008Z,4.43
2023-09-08T12:06:28.672Z,4.40
2023-09-08T12:09:16.322Z,4.27
2023-09-08T12:12:05.676Z,4.80
2023-09-08T12:14:52.473Z,4.47
2023-09-08T12:17:49.480Z,4.70
2023-09-08T12:20:37.570Z,4.60
2023-09-08T12:23:25.557Z,4.97
2023-09-08T12:26:12.843Z,4.63
2023-09-08T12:28:59.996Z,4.73
2023-09-08T12:31:47.427Z,4.87
2023-09-08T12:34:34.307Z,4.80
2023-09-08T12:37:24.930Z,4.83
2023-09-08T12:40:13.853Z,4.87
2023-09-08T12:43:03.788Z,4.97
2023-09-08T12:46:06.942Z,5.00
2023-09-08T12:48:53.786Z,4.77
2023-09-08T12:51:41.194Z,4.93
2023-09-08T12:54:28.082Z,5.40
2023-09-08T12:57:16.462Z,5.13
2023-09-08T13:00:03.890Z,5.10
2023-09-08T13:02:50.891Z,4.83
2023-09-08T13:05:39.966Z,4.90
2023-09-08T13:08:26.941Z,4.57
2023-09-08T13:11:13.952Z,4.80
2023-09-08T13:14:02.250Z,4.80
2023-09-08T13:16:49.275Z,5.27
2023-09-08T13:19:36.094Z,4.90
2023-09-08T13:22:23.085Z,4.97
2023-09-08T13:25:10.901Z,4.93
2023-09-08T13:27:58.014Z,4.90
2023-09-08T13:30:46.678Z,4.63
2023-09-08T13:33:33.246Z,4.93
2023-09-08T13:36:20.086Z,5.13
2023-09-08T13:39:06.951Z,4.73
2023-09-08T13:41:54.823Z,4.90
2023-09-08T13:44:42.182Z,5.13
2023-09-08T13:47:30.893Z,5.40
2023-09-08T13:50:18.405Z,4.53
2023-09-08T13:53:06.231Z,4.80
2023-09-08T13:55:57.022Z,4.50
2023-09-08T13:58:50.031Z,5.07
2023-09-08T14:01:41.282Z,4.97
2023-09-08T14:04:33.660Z,4.53
2023-09-08T14:13:00.358Z,4.73
2023-09-08T14:15:47.222Z,5.00
2023-09-08T14:18:34.042Z,5.20
2023-09-08T14:21:22.409Z,4.67
2023-09-08T14:24:09.435Z,5.10
2023-09-08T14:26:56.287Z,4.70
2023-09-08T14:29:43.127Z,5.13
2023-09-08T14:32:30.226Z,4.67
2023-09-08T14:35:17.283Z,4.50
2023-09-08T14:38:05.767Z,5.10
2023-09-08T14:41:03.896Z,4.90
2023-09-08T14:43:50.603Z,5.30
2023-09-08T14:46:37.288Z,4.93
2023-09-08T14:49:24.348Z,4.47
2023-09-08T14:52:11.401Z,5.43
2023-09-08T14:54:59.678Z,5.83
2023-09-08T14:57:46.913Z,4.80
2023-09-08T15:00:33.650Z,5.30
2023-09-08T15:03:20.567Z,5.20
2023-09-08T15:06:07.480Z,5.10
2023-09-08T15:08:54.423Z,5.27
2023-09-08T15:11:42.626Z,4.93
2023-09-08T15:14:29.613Z,4.93
2023-09-08T15:17:18.095Z,5.00
2023-09-08T15:20:05.834Z,5.30
2023-09-08T15:22:52.683Z,5.30
2023-09-08T15:25:39.716Z,5.27
2023-09-08T15:28:27.985Z,5.03
2023-09-08T15:31:18.209Z,5.50
2023-09-08T15:34:05.110Z,5.20
2023-09-08T15:36:52.303Z,5.47
2023-09-08T15:39:39.539Z,6.70
2023-09-08T15:42:26.448Z,5.37
2023-09-08T15:45:14.784Z,4.90
2023-09-08T15:48:01.836Z,5.30
2023-09-08T15:50:48.634Z,4.73
2023-09-08T15:53:35.749Z,4.40
2023-09-08T15:56:22.508Z,4.53
2023-09-08T15:59:09.389Z,5.00
2023-09-08T16:01:57.745Z,5.00
2023-09-08T16:04:44.733Z,5.23
2023-09-08T16:07:31.736Z,4.57
2023-09-08T16:10:18.822Z,4.37
2023-09-08T16:13:05.772Z,5.43
2023-09-08T16:15:52.350Z,5.50
2023-09-08T16:18:40.661Z,4.90
2023-09-08T16:21:27.282Z,5.17
2023-09-08T16:24:14.227Z,4.83
2023-09-08T16:27:02.271Z,4.97
2023-09-08T16:29:49.166Z,4.70
2023-09-08T16:32:35.920Z,5.30
2023-09-08T16:35:24.086Z,5.17
2023-09-08T16:38:10.977Z,4.67
2023-09-08T16:40:59.138Z,5.33
2023-09-08T16:43:46.009Z,5.17
2023-09-08T16:46:32.844Z,5.17
2023-09-08T16:49:19.738Z,5.13
2023-09-08T16:52:08.125Z,5.20
2023-09-08T16:54:54.885Z,5.13
2023-09-08T16:57:42.351Z,4.80
2023-09-08T17:00:28.952Z,5.43
2023-09-08T17:03:15.864Z,5.30
2023-09-08T17:06:02.631Z,5.23
2023-09-08T17:08:50.878Z,5.23
2023-09-08T17:11:39.524Z,5.37
2023-09-08T17:14:26.353Z,5.30
2023-09-08T17:17:13.132Z,5.07
2023-09-08T17:20:00.336Z,5.40
2023-09-08T17:22:47.032Z,5.23
2023-09-08T17:25:35.271Z,5.00
2023-09-08T17:28:22.262Z,4.97
2023-09-08T17:31:09.287Z,5.40
2023-09-08T17:33:56.211Z,5.63
2023-09-08T17:36:43.008Z,5.57
2023-09-08T17:39:30.068Z,5.20
2023-09-08T17:42:18.081Z,5.50
2023-09-08T17:45:05.479Z,5.40
2023-09-08T17:47:52.527Z,5.23
2023-09-08T17:50:39.677Z,5.73
2023-09-08T17:53:26.325Z,5.20
2023-09-08T17:56:13.199Z,6.03
2023-09-08T17:59:01.509Z,5.40
2023-09-08T18:01:48.469Z,5.70
2023-09-08T18:04:36.173Z,5.07
2023-09-08T18:07:23.186Z,5.20
2023-09-08T18:10:10.363Z,5.30
2023-09-08T18:12:57.262Z,5.33
2023-09-08T18:15:45.406Z,5.17
2023-09-08T18:18:32.570Z,5.50
2023-09-08T18:21:19.206Z,5.47
2023-09-08T18:24:06.454Z,4.73
2023-09-08T18:26:53.448Z,5.47
2023-09-08T18:29:40.521Z,5.30
2023-09-08T18:32:28.704Z,5.67
2023-09-08T18:35:15.749Z,5.47
2023-09-08T18:38:02.518Z,5.67
2023-09-08T18:40:49.261Z,5.73
2023-09-08T18:43:36.186Z,6.17
2023-09-08T18:46:23.142Z,5.57
2023-09-08T18:49:11.309Z,5.60
2023-09-08T18:51:58.083Z,6.10
2023-09-08T18:54:45.341Z,6.97
2023-09-08T18:57:32.356Z,7.17
2023-09-08T19:00:19.564Z,6.43
2023-09-08T19:03:06.897Z,5.83
2023-09-08T19:05:55.445Z,6.93
2023-09-08T19:08:42.281Z,6.07
2023-09-08T19:11:28.803Z,6.23
2023-09-08T19:14:16.603Z,6.60
2023-09-08T19:17:03.938Z,6.57
2023-09-08T19:19:50.444Z,6.40
2023-09-08T19:25:52.920Z,6.87
2023-09-08T19:28:39.747Z,6.13
2023-09-08T19:31:26.718Z,6.10
2023-09-08T19:34:13.503Z,6.57
2023-09-08T19:37:00.300Z,6.17
2023-09-08T19:39:48.669Z,5.90
2023-09-08T19:42:35.829Z,6.60
2023-09-08T19:45:22.591Z,6.70
2023-09-08T19:48:09.812Z,6.70
2023-09-08T19:50:56.686Z,6.90
2023-09-08T19:53:44.076Z,7.03
2023-09-08T19:56:32.491Z,6.70
2023-09-08T19:59:19.704Z,7.20
2023-09-08T20:02:06.508Z,8.37
2023-09-08T20:04:53.280Z,7.90
2023-09-08T20:07:40.905Z,7.30
2023-09-08T20:10:27.801Z,7.47
2023-09-08T20:13:17.114Z,7.57
2023-09-08T20:16:06.110Z,6.93
2023-09-08T20:18:52.850Z,7.37
2023-09-08T20:21:39.815Z,7.23
2023-09-08T20:24:26.590Z,7.30
2023-09-08T20:27:13.617Z,6.77
2023-09-08T20:30:01.943Z,6.40
2023-09-08T20:32:48.849Z,6.43
2023-09-08T20:35:37.191Z,7.17
2023-09-08T20:38:24.095Z,7.20
2023-09-08T20:41:13.621Z,7.53
2023-09-08T20:44:00.716Z,7.07
2023-09-08T20:46:49.308Z,7.83
2023-09-08T20:49:38.280Z,6.90
2023-09-08T20:52:25.274Z,6.70
2023-09-08T20:55:12.447Z,6.93
2023-09-08T20:57:59.142Z,7.63
2023-09-08T21:00:46.100Z,7.93
2023-09-08T21:03:34.946Z,7.83
2023-09-08T21:06:22.528Z,6.80
2023-09-08T21:09:10.763Z,6.97
2023-09-08T21:11:57.602Z,7.03
2023-09-08T21:14:44.945Z,7.33
2023-09-08T21:17:31.480Z,7.90
2023-09-08T21:20:19.576Z,8.17
2023-09-08T21:23:06.718Z,7.70
2023-09-08T21:25:53.942Z,7.47
2023-09-08T21:28:40.750Z,7.50
2023-09-08T21:31:27.403Z,7.93
2023-09-08T21:34:14.608Z,7.53
2023-09-08T21:37:03.009Z,8.10
2023-09-08T21:39:49.786Z,8.57
2023-09-08T21:42:36.600Z,7.30
2023-09-08T21:45:23.491Z,7.87
2023-09-08T21:48:10.326Z,7.83
2023-09-08T21:50:57.334Z,8.07
2023-09-08T21:53:45.402Z,8.23
2023-09-08T21:56:34.387Z,7.83
2023-09-08T21:59:21.628Z,8.17
2023-09-08T22:02:09.324Z,8.30
2023-09-08T22:04:58.332Z,8.40
2023-09-08T22:07:46.550Z,9.07
2023-09-08T22:10:36.150Z,9.20
2023-09-08T22:13:23.513Z,8.17
2023-09-08T22:16:10.861Z,8.67
2023-09-08T22:18:57.980Z,8.87
2023-09-08T22:21:45.627Z,8.63
2023-09-08T22:24:32.541Z,9.17
2023-09-08T22:27:20.431Z,8.20
2023-09-08T22:30:08.244Z,9.47
2023-09-08T22:32:55.269Z,8.87
2023-09-08T22:35:42.244Z,8.23
2023-09-08T22:38:29.222Z,7.57
2023-09-08T22:41:16.122Z,8.50
2023-09-08T22:44:06.901Z,9.10
2023-09-08T22:46:54.960Z,9.77
2023-09-08T22:49:57.588Z,8.90
2023-09-08T22:52:44.232Z,9.47
2023-09-08T22:55:33.656Z,8.93
2023-09-08T22:58:20.776Z,8.90
2023-09-08T23:01:09.393Z,9.17
2023-09-08T23:03:56.290Z,9.40
2023-09-08T23:06:44.760Z,8.33
2023-09-08T23:09:31.494Z,8.73
2023-09-08T23:12:18.404Z,8.17
2023-09-08T23:15:06.426Z,8.37
2023-09-08T23:17:54.740Z,7.83
2023-09-08T23:20:43.190Z,7.80
2023-09-08T23:23:29.806Z,8.60
2023-09-08T23:26:16.739Z,8.53
2023-09-08T23:29:03.950Z,8.53
2023-09-08T23:31:50.552Z,8.90
2023-09-08T23:34:38.871Z,9.80
2023-09-08T23:37:26.529Z,9.13
2023-09-08T23:40:14.082Z,8.53
2023-09-08T23:43:01.058Z,9.20
2023-09-08T23:45:48.294Z,9.33
2023-09-08T23:48:35.103Z,9.13
2023-09-08T23:51:23.483Z,9.53
2023-09-08T23:54:10.214Z,8.73
2023-09-08T23:56:58.976Z,9.43
2023-09-08T23:59:46.065Z,9.13
